Time;durP1;ratioP1;P1;durP2;ratioP2;P2;SDS_P1;SDS_P2;PMS_P1;PMS_P2;Temp;Humidity;BMP_temperature;BMP_pressure;BME280_temperature;BME280_humidity;BME280_pressure;Samples;Min_cycle;Max_cycle;Signal;HPM_P1;HPM_P2
2021/10/16 00:00:14;;;;;;;3.03;2.70;;;;;;;13.52;57.48;98301.94;8252986;28;20213;-79
2021/10/16 00:04:17;;;;;;;2.87;2.50;;;;;;;13.49;57.55;98302.94;8253192;28;20213;-79
2021/10/16 00:08:20;;;;;;;2.70;2.50;;;;;;;13.47;57.49;98296.97;8252882;28;20230;-79
2021/10/16 00:12:24;;;;;;;3.17;2.60;;;;;;;13.37;57.60;98316.59;8252921;28;20202;-78
2021/10/16 00:16:27;;;;;;;3.30;2.57;;;;;;;13.42;57.69;98311.97;8252827;28;20501;-79
2021/10/16 00:20:30;;;;;;;3.70;2.87;;;;;;;13.35;57.61;98306.25;8252714;28;20209;-79
2021/10/16 00:24:32;;;;;;;4.23;2.70;;;;;;;13.39;57.17;98312.16;8252434;28;20202;-79
2021/10/16 00:28:37;;;;;;;4.87;2.80;;;;;;;13.34;57.24;98314.97;8252306;28;20226;-79
2021/10/16 00:32:40;;;;;;;3.07;2.70;;;;;;;13.20;56.79;98314.78;8252564;28;20198;-78
2021/10/16 00:36:44;;;;;;;3.27;2.83;;;;;;;13.10;57.16;98315.25;8256955;28;20206;-79
2021/10/16 00:40:47;;;;;;;4.63;3.03;;;;;;;13.10;56.81;98319.59;8258874;28;20202;-78
2021/10/16 00:44:52;;;;;;;2.90;2.70;;;;;;;13.03;57.26;98321.66;8258839;28;20225;-79
2021/10/16 00:48:55;;;;;;;5.13;3.20;;;;;;;13.02;57.38;98322.59;8258524;28;20536;-79
2021/10/16 00:52:58;;;;;;;5.33;2.73;;;;;;;13.00;56.79;98318.34;8258014;28;20276;-79
2021/10/16 00:57:01;;;;;;;4.10;3.10;;;;;;;12.91;57.05;98317.06;8258389;28;20317;-79
2021/10/16 01:01:05;;;;;;;4.77;3.00;;;;;;;12.91;56.69;98314.47;8258260;28;20511;-79
2021/10/16 01:05:09;;;;;;;5.87;3.73;;;;;;;12.80;56.73;98309.75;8258059;28;20207;-79
2021/10/16 01:09:13;;;;;;;4.43;3.10;;;;;;;12.79;56.58;98302.03;8258107;28;20230;-80
2021/10/16 01:13:17;;;;;;;3.73;3.10;;;;;;;12.80;56.54;98309.75;8257796;28;20207;-79
2021/10/16 01:17:22;;;;;;;5.00;3.23;;;;;;;12.81;56.30;98300.19;8257769;28;20210;-78
2021/10/16 01:21:27;;;;;;;4.93;3.43;;;;;;;12.76;56.71;98300.44;8257428;28;20213;-79
2021/10/16 01:25:29;;;;;;;3.93;3.10;;;;;;;12.68;56.35;98302.56;8257471;28;20198;-79
2021/10/16 01:29:33;;;;;;;4.20;3.20;;;;;;;12.58;56.97;98306.50;8257282;28;20226;-79
2021/10/16 01:33:36;;;;;;;3.10;2.80;;;;;;;12.57;56.51;98303.06;8257230;28;20214;-79
2021/10/16 01:37:42;;;;;;;3.23;2.93;;;;;;;12.60;56.55;98300.31;8257164;28;20206;-79
2021/10/16 01:41:45;;;;;;;3.37;2.90;;;;;;;12.53;56.30;98293.75;8256957;28;20516;-79
2021/10/16 01:45:51;;;;;;;3.43;3.13;;;;;;;12.41;56.56;98299.50;8255913;28;20210;-79
2021/10/16 01:49:55;;;;;;;3.47;3.07;;;;;;;12.36;55.81;98299.72;8256389;28;20245;-79
2021/10/16 01:54:00;;;;;;;4.70;3.10;;;;;;;12.39;55.51;98296.97;8256464;28;20425;-78
2021/10/16 01:58:05;;;;;;;3.93;2.80;;;;;;;12.31;55.72;98297.31;8256419;28;20210;-78
2021/10/16 02:02:08;;;;;;;3.87;3.47;;;;;;;12.22;55.67;98297.75;8256384;28;20202;-79
2021/10/16 02:06:11;;;;;;;3.33;3.03;;;;;;;12.18;54.95;98297.94;8256154;28;20265;-78
2021/10/16 02:10:16;;;;;;;3.70;3.20;;;;;;;12.21;55.09;98300.41;8255956;28;20234;-79
2021/10/16 02:14:19;;;;;;;3.53;3.23;;;;;;;12.12;55.28;98304.25;8255899;28;20524;-79
2021/10/16 02:18:22;;;;;;;3.80;3.40;;;;;;;12.15;54.99;98303.28;8255636;28;20207;-79
2021/10/16 02:22:24;;;;;;;5.10;3.90;;;;;;;12.04;55.51;98302.00;8255712;28;20210;-79
2021/10/16 02:26:31;;;;;;;5.57;3.90;;;;;;;12.04;55.58;98316.75;8255636;28;20207;-79
2021/10/16 02:30:33;;;;;;;6.37;4.00;;;;;;;12.07;55.58;98307.09;8255363;28;20237;-78
2021/10/16 02:34:37;;;;;;;7.17;6.13;;;;;;;12.03;56.53;98302.94;8255330;28;20203;-78
2021/10/16 02:38:39;;;;;;;7.33;6.17;;;;;;;12.07;56.89;98306.22;8254917;28;20214;-79
2021/10/16 02:42:44;;;;;;;9.43;6.90;;;;;;;12.03;57.15;98312.47;8255082;28;20202;-78
2021/10/16 02:46:47;;;;;;;10.67;7.90;;;;;;;12.03;57.37;98310.72;8254882;28;20213;-79
2021/10/16 02:50:49;;;;;;;11.40;7.83;;;;;;;12.02;57.71;98314.22;8254500;28;20543;-79
2021/10/16 02:54:52;;;;;;;22.80;6.87;;;;;;;11.93;58.58;98325.84;8254780;28;20203;-79
2021/10/16 02:58:57;;;;;;;22.60;6.93;;;;;;;11.87;58.35;98320.91;8254325;28;20501;-79
2021/10/16 03:02:59;;;;;;;25.73;6.03;;;;;;;11.77;58.36;98329.16;8254487;28;20201;-78
2021/10/16 03:07:02;;;;;;;23.43;5.67;;;;;;;11.70;58.10;98321.63;8254260;28;20210;-79
2021/10/16 03:11:05;;;;;;;28.87;4.53;;;;;;;11.62;57.88;98328.06;8254090;28;20206;-79
2021/10/16 03:15:10;;;;;;;17.97;4.30;;;;;;;11.51;57.83;98339.72;8253985;28;20213;-79
2021/10/16 03:19:13;;;;;;;10.70;4.00;;;;;;;11.61;57.15;98328.97;8253935;28;20218;-79
2021/10/16 03:23:17;;;;;;;15.00;4.73;;;;;;;11.40;57.09;98323.78;8253889;28;20209;-79
2021/10/16 03:27:21;;;;;;;35.20;5.10;;;;;;;11.38;57.20;98330.78;8253878;28;20209;-79
2021/10/16 03:31:25;;;;;;;17.53;4.63;;;;;;;11.44;57.30;98330.53;8253680;28;20218;-79
2021/10/16 03:35:28;;;;;;;23.27;5.10;;;;;;;11.45;57.51;98331.38;8253794;28;20501;-79
2021/10/16 03:39:31;;;;;;;36.77;4.90;;;;;;;11.23;57.11;98331.41;8253245;28;20206;-79
2021/10/16 03:43:34;;;;;;;22.43;4.57;;;;;;;11.24;57.22;98330.53;8253383;28;20214;-78
2021/10/16 03:47:38;;;;;;;20.93;4.33;;;;;;;11.20;56.89;98337.59;8253387;28;20206;-78
2021/10/16 03:51:41;;;;;;;21.47;3.83;;;;;;;11.14;56.79;98333.50;8252987;28;20246;-79
2021/10/16 03:55:45;;;;;;;5.37;3.60;;;;;;;11.23;56.42;98332.28;8253143;28;20202;-79
2021/10/16 03:59:48;;;;;;;4.00;3.70;;;;;;;11.22;56.22;98342.72;8253240;28;20206;-79
2021/10/16 04:03:52;;;;;;;11.40;4.40;;;;;;;11.10;56.41;98347.47;8252762;28;20202;-78
2021/10/16 04:07:55;;;;;;;9.07;5.03;;;;;;;11.11;56.65;98349.16;8252659;28;20230;-78
2021/10/16 04:11:58;;;;;;;19.37;4.23;;;;;;;11.05;56.51;98351.16;8252024;28;20213;-78
2021/10/16 04:16:01;;;;;;;14.83;4.00;;;;;;;11.01;56.59;98353.03;8252810;28;20386;-78
2021/10/16 04:20:06;;;;;;;14.30;3.63;;;;;;;11.05;56.04;98349.41;8253400;28;20213;-78
2021/10/16 04:24:09;;;;;;;6.37;3.83;;;;;;;11.00;56.06;98348.75;8252727;28;20213;-79
2021/10/16 04:28:12;;;;;;;5.20;3.43;;;;;;;10.99;56.26;98348.81;8252735;28;20239;-78
2021/10/16 04:32:15;;;;;;;9.33;3.30;;;;;;;10.92;55.92;98349.03;8252722;28;20524;-79
2021/10/16 04:36:20;;;;;;;12.13;3.20;;;;;;;10.81;55.75;98353.81;8252418;28;20305;-79
2021/10/16 04:40:25;;;;;;;3.70;3.17;;;;;;;10.87;55.19;98351.00;8252778;28;20206;-79
2021/10/16 04:44:28;;;;;;;7.73;4.43;;;;;;;10.89;55.13;98353.50;8252619;28;20206;-79
2021/10/16 04:48:31;;;;;;;14.80;3.30;;;;;;;10.60;55.53;98355.47;8252152;28;20230;-79
2021/10/16 04:52:35;;;;;;;6.97;3.23;;;;;;;10.66;55.99;98360.44;8252106;28;20269;-78
2021/10/16 04:56:38;;;;;;;4.07;3.07;;;;;;;10.70;55.41;98361.16;8252095;28;20202;-78
2021/10/16 05:00:41;;;;;;;5.33;2.93;;;;;;;10.64;55.64;98366.56;8252039;28;20254;-79
2021/10/16 05:04:44;;;;;;;3.73;3.17;;;;;;;10.75;55.50;98362.66;8252015;28;20203;-77
2021/10/16 05:08:48;;;;;;;35.33;27.00;;;;;;;10.75;55.60;98364.41;8251789;28;20227;-78
2021/10/16 05:12:51;;;;;;;34.20;15.03;;;;;;;10.71;55.57;98363.69;8251566;28;20214;-78
2021/10/16 05:16:54;;;;;;;8.37;4.57;;;;;;;10.65;56.12;98361.34;8251912;28;20529;-79
2021/10/16 05:20:57;;;;;;;12.33;4.30;;;;;;;10.60;56.02;98365.84;8251689;28;20213;-78
2021/10/16 05:25:01;;;;;;;6.57;3.60;;;;;;;10.52;55.65;98375.66;8257534;28;20490;-78
2021/10/16 05:29:04;;;;;;;31.10;3.80;;;;;;;10.55;55.61;98370.38;8257229;28;20232;-78
2021/10/16 05:33:07;;;;;;;7.93;3.70;;;;;;;10.49;55.65;98381.81;8257126;28;20209;-78
2021/10/16 05:37:11;;;;;;;15.23;4.67;;;;;;;10.44;55.98;98372.50;8257260;28;20202;-78
2021/10/16 05:41:15;;;;;;;20.80;3.97;;;;;;;10.41;55.96;98386.41;8256827;28;20217;-78
2021/10/16 05:45:18;;;;;;;3.10;2.50;;;;;;;10.42;55.82;98384.69;8256715;28;20213;-78
2021/10/16 05:49:21;;;;;;;3.47;3.17;;;;;;;10.40;56.15;98392.50;8256769;28;20238;-79
2021/10/16 05:53:24;;;;;;;11.33;2.93;;;;;;;10.39;56.18;98395.13;8256363;28;20238;-78
2021/10/16 05:57:29;;;;;;;7.70;3.60;;;;;;;10.45;55.27;98397.50;8256508;28;20210;-79
2021/10/16 06:01:31;;;;;;;4.97;2.97;;;;;;;10.43;55.97;98397.53;8256462;28;20398;-78
2021/10/16 06:05:35;;;;;;;9.63;2.80;;;;;;;10.44;55.49;98394.06;8256376;28;20387;-79
2021/10/16 06:09:38;;;;;;;11.67;3.20;;;;;;;10.34;55.93;98406.50;8256291;28;20237;-79
2021/10/16 06:13:42;;;;;;;23.97;3.57;;;;;;;10.27;56.19;98401.56;8256015;28;20199;-78
2021/10/16 06:17:46;;;;;;;12.00;2.77;;;;;;;10.31;56.27;98409.19;8255763;28;20210;-79
2021/10/16 06:21:49;;;;;;;22.70;3.03;;;;;;;10.26;55.60;98421.44;8255658;28;20210;-79
2021/10/16 06:25:52;;;;;;;13.03;2.70;;;;;;;10.31;55.08;98427.31;8255788;28;20202;-79
2021/10/16 06:29:56;;;;;;;12.63;4.30;;;;;;;10.37;55.35;98429.69;8255465;28;20233;-78
2021/10/16 06:33:59;;;;;;;4.00;2.30;;;;;;;10.44;55.33;98438.09;8255094;28;20206;-79
2021/10/16 06:38:02;;;;;;;2.13;1.97;;;;;;;10.40;55.61;98446.03;8255230;28;20391;-79
2021/10/16 06:42:05;;;;;;;4.17;2.57;;;;;;;10.36;55.53;98445.28;8255217;28;20211;-79
2021/10/16 06:46:13;;;;;;;2.63;2.40;;;;;;;10.45;55.13;98451.88;8255222;28;20212;-79
2021/10/16 06:50:16;;;;;;;5.87;2.53;;;;;;;10.37;55.86;98440.03;8256392;28;20241;-79
2021/10/16 06:54:19;;;;;;;2.77;2.50;;;;;;;10.50;55.54;98448.22;8254709;28;20238;-79
2021/10/16 06:58:22;;;;;;;7.13;2.40;;;;;;;10.48;55.58;98449.19;8254641;28;20206;-79
2021/10/16 07:02:26;;;;;;;5.00;2.70;;;;;;;10.52;55.35;98450.75;8254524;28;20206;-79
2021/10/16 07:06:29;;;;;;;4.70;2.57;;;;;;;10.47;55.55;98466.47;8254385;28;20215;-79
2021/10/16 07:10:32;;;;;;;8.27;2.80;;;;;;;10.59;55.42;98460.00;8254157;28;20237;-79
2021/10/16 07:14:35;;;;;;;4.43;2.10;;;;;;;10.68;55.18;98471.75;8254135;28;20202;-79
2021/10/16 07:18:39;;;;;;;15.17;2.90;;;;;;;10.62;55.76;98462.44;8253385;28;20221;-79
2021/10/16 07:22:42;;;;;;;2.97;2.10;;;;;;;10.59;54.53;98472.09;8253900;28;20257;-80
2021/10/16 07:26:45;;;;;;;5.23;3.40;;;;;;;10.69;54.98;98470.84;8253667;28;20208;-80
2021/10/16 07:30:48;;;;;;;4.60;3.23;;;;;;;10.76;55.69;98477.50;8253566;28;20230;-80
2021/10/16 07:34:52;;;;;;;10.73;3.00;;;;;;;10.72;55.80;98481.94;8253552;28;20206;-80
2021/10/16 07:38:55;;;;;;;15.27;2.20;;;;;;;10.67;56.02;98493.38;8253599;28;20210;-79
2021/10/16 07:42:58;;;;;;;28.60;3.47;;;;;;;10.61;56.19;98488.44;8253448;28;20207;-80
2021/10/16 07:47:01;;;;;;;5.33;2.70;;;;;;;10.74;55.63;98487.09;8252523;28;20203;-80
2021/10/16 07:51:05;;;;;;;12.80;3.43;;;;;;;10.78;56.43;98490.41;8253066;28;20238;-80
2021/10/16 07:55:08;;;;;;;7.80;3.30;;;;;;;10.86;55.80;98496.16;8253116;28;20213;-80
2021/10/16 07:59:11;;;;;;;3.40;3.10;;;;;;;11.04;55.52;98497.19;8253079;28;20206;-80
2021/10/16 08:03:14;;;;;;;3.53;2.60;;;;;;;11.08;55.26;98496.16;8252996;28;20209;-80
2021/10/16 08:07:19;;;;;;;3.40;3.10;;;;;;;11.11;54.92;98496.06;8252888;28;20206;-79
2021/10/16 08:11:22;;;;;;;3.80;3.10;;;;;;;11.14;55.35;98495.97;8252576;28;20237;-80
2021/10/16 08:15:24;;;;;;;4.67;3.57;;;;;;;11.30;55.18;98493.59;8252669;28;20209;-80
2021/10/16 08:19:27;;;;;;;3.80;3.40;;;;;;;11.44;55.23;98493.06;8252730;28;20206;-80
2021/10/16 08:23:35;;;;;;;4.20;3.80;;;;;;;11.44;55.16;98499.13;8252648;28;20202;-80
2021/10/16 08:27:38;;;;;;;5.77;4.80;;;;;;;11.36;54.79;98506.31;8252696;28;20209;-79
2021/10/16 08:31:41;;;;;;;4.87;3.90;;;;;;;11.68;55.03;98505.06;8252321;28;20230;-79
2021/10/16 08:35:44;;;;;;;4.57;3.97;;;;;;;11.52;54.48;98499.66;8252551;28;20202;-79
2021/10/16 08:39:48;;;;;;;4.33;3.90;;;;;;;11.60;54.72;98501.09;8252568;28;20206;-79
2021/10/16 08:43:51;;;;;;;12.87;8.70;;;;;;;11.88;54.96;98501.66;8252201;28;20531;-80
2021/10/16 08:47:54;;;;;;;9.17;8.27;;;;;;;12.03;54.99;98504.56;8252346;28;20548;-79
2021/10/16 08:51:57;;;;;;;6.23;5.13;;;;;;;11.92;55.81;98507.59;8251844;28;20517;-80
2021/10/16 08:56:04;;;;;;;7.03;4.27;;;;;;;11.69;55.47;98506.75;8253812;28;20202;-80
2021/10/16 09:00:42;;;;;;;5.77;4.77;;;;;;;11.86;55.19;98511.25;8258431;28;20205;-79
2021/10/16 09:04:48;;;;;;;6.57;4.53;;;;;;;12.32;55.16;98506.78;8258260;28;20221;-80
2021/10/16 09:08:54;;;;;;;6.30;4.30;;;;;;;12.83;54.40;98506.28;8258065;28;20528;-79
2021/10/16 09:12:58;;;;;;;4.43;3.30;;;;;;;12.67;54.97;98503.53;8257730;28;20234;-79
2021/10/16 09:17:03;;;;;;;4.43;3.20;;;;;;;12.52;55.02;98502.47;8257896;28;20203;-80
2021/10/16 09:21:15;;;;;;;4.03;3.07;;;;;;;12.88;54.48;98501.75;8257680;28;20213;-79
2021/10/16 09:25:24;;;;;;;3.30;2.47;;;;;;;13.11;53.13;98498.91;8257199;28;20206;-80
2021/10/16 09:29:31;;;;;;;3.23;2.50;;;;;;;14.73;50.10;98500.63;8257424;28;20271;-80
2021/10/16 09:33:46;;;;;;;3.97;3.53;;;;;;;15.22;48.83;98501.41;8257619;28;20225;-80
2021/10/16 09:37:51;;;;;;;5.03;3.57;;;;;;;15.22;49.23;98500.59;8259127;28;20206;-80
2021/10/16 09:41:54;;;;;;;8.03;7.23;;;;;;;15.21;48.00;98493.66;8257362;28;20229;-80
2021/10/16 09:46:14;;;;;;;3.97;3.20;;;;;;;16.46;46.60;98500.50;8256940;28;20516;-80
2021/10/16 09:50:17;;;;;;;4.10;2.87;;;;;;;15.98;47.31;98497.22;8256709;28;20245;-80
2021/10/16 09:54:20;;;;;;;55.40;11.67;;;;;;;16.34;46.76;98502.06;8256812;28;20234;-80
2021/10/16 09:58:24;;;;;;;16.83;8.33;;;;;;;16.84;45.37;98494.75;8256489;28;20202;-80
2021/10/16 10:02:30;;;;;;;6.60;5.03;;;;;;;17.45;44.03;98495.28;8256250;28;20211;-80
2021/10/16 10:06:33;;;;;;;6.47;3.80;;;;;;;17.64;42.57;98492.31;8256013;28;20395;-80
2021/10/16 10:10:36;;;;;;;5.17;3.00;;;;;;;17.83;41.80;98488.50;8255863;28;20234;-79
2021/10/16 10:14:40;;;;;;;4.97;2.63;;;;;;;17.90;42.62;98484.56;8256254;28;20203;-80
2021/10/16 10:19:03;;;;;;;4.07;2.50;;;;;;;18.18;41.36;98486.16;8256030;28;20202;-80
2021/10/16 10:23:20;;;;;;;6.10;2.87;;;;;;;18.23;41.41;98483.25;8255951;28;20213;-80
2021/10/16 10:27:24;;;;;;;6.53;2.83;;;;;;;18.28;42.19;98482.00;8255606;28;20202;-80
2021/10/16 10:31:58;;;;;;;5.53;2.40;;;;;;;18.52;41.44;98483.88;8255670;28;20233;-79
2021/10/16 10:36:25;;;;;;;4.20;2.40;;;;;;;18.41;40.80;98476.78;8255295;28;20213;-80
2021/10/16 10:40:37;;;;;;;6.67;2.50;;;;;;;18.14;40.07;98474.22;8255488;28;20218;-80
2021/10/16 10:44:40;;;;;;;4.87;2.87;;;;;;;18.37;40.66;98464.78;8255274;28;20384;-80
2021/10/16 10:48:44;;;;;;;5.73;2.37;;;;;;;18.42;41.04;98457.44;8254963;28;20206;-80
2021/10/16 10:53:03;;;;;;;5.80;2.40;;;;;;;18.36;40.29;98460.50;8254786;28;20408;-79
2021/10/16 10:57:06;;;;;;;4.90;2.60;;;;;;;18.58;40.48;98441.50;8254915;28;20225;-80
2021/10/16 11:01:08;;;;;;;8.17;2.70;;;;;;;18.50;40.62;98441.19;8254463;28;20366;-80
2021/10/16 11:05:34;;;;;;;6.77;2.30;;;;;;;18.33;39.43;98437.09;8254052;28;20207;-80
2021/10/16 11:09:39;;;;;;;5.87;2.40;;;;;;;18.17;40.25;98432.09;8254515;28;20213;-80
2021/10/16 11:13:42;;;;;;;7.37;2.83;;;;;;;18.01;40.55;98426.19;8254256;28;20237;-80
2021/10/16 11:17:49;;;;;;;8.53;2.23;;;;;;;18.45;40.49;98423.16;8254231;28;20209;-80
2021/10/16 11:21:52;;;;;;;5.90;2.10;;;;;;;17.97;39.02;98420.31;8254051;28;20206;-80
2021/10/16 11:25:58;;;;;;;8.20;2.13;;;;;;;18.23;39.07;98408.06;8253983;28;20305;-80
2021/10/16 11:30:02;;;;;;;5.50;2.33;;;;;;;18.35;39.39;98407.22;8254093;28;20225;-80
2021/10/16 11:34:09;;;;;;;10.17;2.13;;;;;;;18.59;39.40;98405.63;8253546;28;20230;-80
2021/10/16 11:38:13;;;;;;;14.43;2.77;;;;;;;18.46;40.10;98397.78;8253496;28;20366;-80
2021/10/16 11:42:19;;;;;;;5.73;1.93;;;;;;;18.49;38.66;98408.06;8253483;28;20213;-79
2021/10/16 11:46:25;;;;;;;7.30;2.30;;;;;;;18.49;38.60;98397.56;8253500;28;20383;-80
2021/10/16 11:50:29;;;;;;;6.03;2.40;;;;;;;18.12;38.45;98400.94;8253166;28;20229;-80
2021/10/16 11:54:32;;;;;;;8.50;3.30;;;;;;;18.14;38.05;98395.59;8253066;28;20234;-79
2021/10/16 11:58:37;;;;;;;5.63;1.80;;;;;;;18.44;38.34;98395.25;8253051;28;20214;-80
2021/10/16 12:02:40;;;;;;;5.30;1.97;;;;;;;18.13;38.65;98391.31;8253007;28;20206;-79
2021/10/16 12:06:43;;;;;;;6.40;2.00;;;;;;;18.30;36.52;98375.25;8252973;28;20213;-80
2021/10/16 12:10:51;;;;;;;4.13;1.53;;;;;;;18.50;36.71;98378.25;8252859;28;20238;-78
2021/10/16 12:15:00;;;;;;;6.37;1.60;;;;;;;18.23;35.59;98375.78;8252872;28;20208;-78
2021/10/16 12:19:05;;;;;;;4.83;1.60;;;;;;;18.33;34.86;98366.31;8252986;28;20206;-78
2021/10/16 12:23:08;;;;;;;4.47;1.70;;;;;;;18.32;34.47;98355.00;8254103;28;20206;-78
2021/10/16 12:27:13;;;;;;;4.23;1.37;;;;;;;18.32;35.90;98356.78;8252480;28;20209;-78
2021/10/16 12:31:18;;;;;;;3.70;1.30;;;;;;;18.51;35.60;98346.69;8254797;28;20233;-78
2021/10/16 12:35:21;;;;;;;4.70;1.10;;;;;;;18.30;33.10;98343.78;8259312;28;20493;-78
2021/10/16 12:39:29;;;;;;;3.33;0.93;;;;;;;18.58;33.92;98341.00;8259152;28;20209;-78
2021/10/16 12:43:42;;;;;;;3.87;1.30;;;;;;;18.50;33.50;98336.28;8258593;28;20211;-77
2021/10/16 12:47:47;;;;;;;3.77;1.20;;;;;;;18.70;34.08;98335.72;8258866;28;20202;-78
2021/10/16 12:51:49;;;;;;;4.27;1.70;;;;;;;18.77;34.13;98336.09;8258669;28;20253;-78
2021/10/16 12:55:52;;;;;;;6.73;1.70;;;;;;;19.02;33.51;98329.09;8259243;28;20206;-80
2021/10/16 12:59:55;;;;;;;4.30;1.50;;;;;;;18.87;32.21;98334.53;8258373;28;20209;-79
2021/10/16 13:04:00;;;;;;;3.97;1.30;;;;;;;18.95;32.34;98326.94;8258517;28;20613;-80
2021/10/16 13:08:04;;;;;;;4.37;1.47;;;;;;;19.12;32.52;98320.44;8258022;28;20202;-80
2021/10/16 13:12:07;;;;;;;4.73;1.40;;;;;;;19.29;31.82;98318.38;8257742;28;20241;-79
2021/10/16 13:16:11;;;;;;;2.57;1.10;;;;;;;18.99;31.97;98318.84;8257921;28;20209;-80
2021/10/16 13:20:17;;;;;;;3.57;1.20;;;;;;;19.08;31.19;98320.81;8257730;28;20484;-80
2021/10/16 13:24:19;;;;;;;3.87;1.20;;;;;;;19.33;30.12;98319.81;8257557;28;20210;-80
2021/10/16 13:28:22;;;;;;;3.27;1.10;;;;;;;19.41;30.35;98317.44;8257549;28;20229;-80
2021/10/16 13:32:25;;;;;;;3.90;1.57;;;;;;;19.52;31.63;98319.28;8257646;28;20226;-80
2021/10/16 13:36:30;;;;;;;2.53;1.20;;;;;;;19.65;32.05;98317.38;8257336;28;20298;-80
2021/10/16 13:40:36;;;;;;;4.30;1.60;;;;;;;19.87;31.53;98319.22;8257518;28;20202;-81
2021/10/16 13:44:39;;;;;;;5.73;1.47;;;;;;;19.89;31.37;98311.22;8255854;28;20261;-80
2021/10/16 13:48:42;;;;;;;2.93;1.13;;;;;;;19.96;31.75;98309.81;8256954;28;20202;-80
2021/10/16 13:52:47;;;;;;;2.67;1.20;;;;;;;19.93;30.45;98320.53;8256689;28;20438;-80
2021/10/16 13:56:49;;;;;;;2.53;1.20;;;;;;;19.86;30.21;98309.69;8256621;28;20202;-80
2021/10/16 14:00:55;;;;;;;3.30;1.50;;;;;;;19.89;30.54;98313.84;8257281;28;20482;-80
2021/10/16 14:04:58;;;;;;;2.80;1.30;;;;;;;19.78;31.97;98314.69;8256937;28;20392;-80
2021/10/16 14:09:03;;;;;;;2.57;1.10;;;;;;;19.85;31.40;98312.44;8256433;28;20202;-80
2021/10/16 14:13:06;;;;;;;3.77;1.27;;;;;;;19.69;30.21;98310.94;8256205;28;20226;-80
2021/10/16 14:17:09;;;;;;;4.13;1.60;;;;;;;19.68;32.03;98306.63;8256014;28;20202;-80
2021/10/16 14:21:13;;;;;;;4.27;1.33;;;;;;;19.84;32.76;98305.50;8255936;28;20202;-80
2021/10/16 14:25:20;;;;;;;5.77;2.20;;;;;;;19.76;32.57;98308.69;8256405;28;20214;-80
2021/10/16 14:29:23;;;;;;;3.67;1.60;;;;;;;19.57;34.75;98303.97;8255563;28;20206;-80
2021/10/16 14:33:26;;;;;;;5.60;1.50;;;;;;;19.62;33.94;98301.03;8255427;28;20528;-80
2021/10/16 14:37:29;;;;;;;6.27;4.20;;;;;;;19.41;32.58;98299.06;8255358;28;20397;-80
2021/10/16 14:41:33;;;;;;;4.43;2.00;;;;;;;19.30;33.87;98294.59;8255357;28;20202;-80
2021/10/16 14:45:36;;;;;;;4.33;2.10;;;;;;;19.21;34.78;98300.56;8255188;28;20203;-80
2021/10/16 14:49:39;;;;;;;5.67;1.77;;;;;;;19.09;35.80;98294.41;8254992;28;20222;-80
2021/10/16 14:53:42;;;;;;;3.60;1.57;;;;;;;18.86;35.94;98301.34;8254515;28;20423;-81
2021/10/16 14:57:46;;;;;;;4.83;2.33;;;;;;;18.68;36.50;98300.06;8254605;28;20214;-80
2021/10/16 15:01:49;;;;;;;5.80;1.97;;;;;;;18.32;37.18;98296.50;8254496;28;20206;-80
2021/10/16 15:05:52;;;;;;;3.17;1.70;;;;;;;18.28;37.88;98295.88;8254383;28;20418;-80
2021/10/16 15:09:55;;;;;;;4.23;1.70;;;;;;;18.11;38.04;98291.81;8254593;28;20230;-81
2021/10/16 15:14:00;;;;;;;4.07;1.80;;;;;;;17.83;38.74;98295.47;8256833;28;20234;-80
2021/10/16 15:18:03;;;;;;;2.83;1.50;;;;;;;17.68;39.02;98294.75;8254075;28;20206;-80
2021/10/16 15:22:06;;;;;;;6.13;1.90;;;;;;;17.27;39.90;98292.28;8253882;28;20214;-81
2021/10/16 15:26:09;;;;;;;5.07;1.80;;;;;;;17.07;40.69;98291.84;8254148;28;20202;-80
2021/10/16 15:30:13;;;;;;;7.40;1.90;;;;;;;17.15;40.76;98301.78;8254126;28;20396;-80
2021/10/16 15:34:19;;;;;;;4.90;1.87;;;;;;;16.99;41.45;98296.75;8253420;28;20230;-80
2021/10/16 15:38:24;;;;;;;5.70;2.40;;;;;;;16.90;41.09;98295.53;8253969;28;20202;-80
2021/10/16 15:42:27;;;;;;;5.10;1.63;;;;;;;16.67;41.71;98302.22;8253938;28;20213;-81
2021/10/16 15:46:32;;;;;;;4.07;1.60;;;;;;;16.67;42.32;98302.22;8253653;28;20202;-79
2021/10/16 15:50:41;;;;;;;5.60;1.80;;;;;;;16.57;42.42;98304.59;8253343;28;20226;-78
2021/10/16 15:54:45;;;;;;;4.03;1.60;;;;;;;16.41;43.00;98309.09;8253048;28;20345;-78
2021/10/16 15:58:48;;;;;;;4.00;1.50;;;;;;;16.27;43.10;98309.13;8253064;28;20490;-78
2021/10/16 16:02:52;;;;;;;3.10;1.30;;;;;;;16.13;43.77;98312.63;8253064;28;20517;-77
2021/10/16 16:06:55;;;;;;;5.13;1.90;;;;;;;15.93;44.33;98304.19;8252249;28;20386;-78
2021/10/16 16:10:58;;;;;;;6.73;1.77;;;;;;;16.07;44.71;98305.13;8252704;28;20206;-79
2021/10/16 16:15:01;;;;;;;5.40;2.13;;;;;;;15.96;44.96;98306.63;8252668;28;20237;-78
2021/10/16 16:19:09;;;;;;;3.57;1.57;;;;;;;15.83;45.12;98313.53;8252829;28;20202;-77
2021/10/16 16:23:12;;;;;;;4.40;1.70;;;;;;;15.73;45.15;98315.88;8252519;28;20206;-78
2021/10/16 16:27:19;;;;;;;5.83;2.23;;;;;;;15.71;45.72;98316.88;8252650;28;20229;-78
2021/10/16 16:31:22;;;;;;;6.67;2.37;;;;;;;15.58;45.74;98316.75;8252635;28;20209;-79
2021/10/16 16:35:27;;;;;;;5.20;2.33;;;;;;;15.51;45.90;98321.47;8252429;28;20301;-79
2021/10/16 16:39:29;;;;;;;4.73;2.37;;;;;;;15.43;45.71;98321.09;8252526;28;20214;-79
2021/10/16 16:43:32;;;;;;;5.03;2.37;;;;;;;15.40;46.21;98340.38;8252350;28;20213;-79
2021/10/16 16:47:44;;;;;;;6.10;2.30;;;;;;;15.34;46.43;98340.72;8252241;28;20207;-79
2021/10/16 16:51:53;;;;;;;7.93;4.00;;;;;;;15.30;46.80;98347.06;8251664;28;20301;-79
2021/10/16 16:55:56;;;;;;;5.77;2.70;;;;;;;15.18;47.28;98342.53;8252070;28;20226;-79
2021/10/16 16:59:59;;;;;;;6.03;2.67;;;;;;;15.02;47.56;98347.78;8252096;28;20274;-79
2021/10/16 17:04:03;;;;;;;10.17;6.20;;;;;;;14.92;48.11;98349.22;8252114;28;20206;-79
2021/10/16 17:08:23;;;;;;;9.20;6.33;;;;;;;14.90;48.54;98351.91;8252107;28;20210;-79
2021/10/16 17:12:26;;;;;;;8.97;3.40;;;;;;;14.89;48.60;98349.38;8251907;28;20203;-79
2021/10/16 17:16:29;;;;;;;13.60;3.73;;;;;;;14.73;48.45;98355.47;8252547;28;20202;-79
2021/10/16 17:20:32;;;;;;;8.43;4.90;;;;;;;14.69;48.26;98353.94;8257864;28;20202;-79
2021/10/16 17:24:36;;;;;;;12.90;7.43;;;;;;;14.63;48.70;98352.53;8257431;28;20273;-79
2021/10/16 17:28:46;;;;;;;8.00;5.00;;;;;;;14.58;49.21;98345.88;8257816;28;20523;-79
2021/10/16 17:32:52;;;;;;;11.13;5.00;;;;;;;14.45;49.15;98341.31;8257262;28;20230;-79
2021/10/16 17:36:56;;;;;;;10.43;5.20;;;;;;;14.30;49.65;98347.34;8257641;28;20202;-79
2021/10/16 17:41:00;;;;;;;6.63;4.00;;;;;;;14.23;49.74;98349.44;8257218;28;20424;-78
2021/10/16 17:45:04;;;;;;;12.03;8.27;;;;;;;14.21;49.82;98348.66;8257163;28;20206;-79
2021/10/16 17:49:07;;;;;;;24.57;17.63;;;;;;;14.13;49.63;98344.81;8256853;28;20556;-79
2021/10/16 17:53:10;;;;;;;48.00;38.83;;;;;;;14.04;50.38;98351.31;8256473;28;20246;-79
2021/10/16 17:57:14;;;;;;;31.50;24.23;;;;;;;14.00;50.18;98350.63;8256666;28;20380;-79
2021/10/16 18:01:17;;;;;;;24.13;21.47;;;;;;;13.94;50.82;98352.75;8259177;28;20482;-78
2021/10/16 18:05:20;;;;;;;14.83;11.10;;;;;;;13.93;50.91;98361.44;8256376;28;20519;-79
2021/10/16 18:09:23;;;;;;;15.63;8.43;;;;;;;13.82;50.77;98362.00;8256463;28;20207;-80
2021/10/16 18:13:27;;;;;;;11.23;6.63;;;;;;;13.76;50.79;98354.50;8256197;28;20230;-79
2021/10/16 18:17:30;;;;;;;11.70;6.60;;;;;;;13.63;50.63;98367.28;8256044;28;20380;-79
2021/10/16 18:21:34;;;;;;;12.70;7.73;;;;;;;13.58;50.97;98361.50;8255933;28;20213;-80
2021/10/16 18:25:37;;;;;;;16.67;9.30;;;;;;;13.55;51.28;98365.06;8255819;28;20206;-79
2021/10/16 18:29:42;;;;;;;11.77;7.50;;;;;;;13.45;51.21;98361.25;8254827;28;20261;-79
2021/10/16 18:33:47;;;;;;;11.70;8.33;;;;;;;13.02;51.63;98369.38;8255184;28;20230;-79
2021/10/16 18:37:53;;;;;;;12.53;7.57;;;;;;;12.91;52.28;98369.03;8255554;28;20213;-79
2021/10/16 18:41:56;;;;;;;14.83;10.73;;;;;;;12.81;52.40;98360.84;8255566;28;20206;-79
2021/10/16 18:46:03;;;;;;;26.17;17.30;;;;;;;12.76;52.33;98361.97;8255324;28;20205;-79
2021/10/16 18:50:08;;;;;;;26.73;17.47;;;;;;;12.71;52.47;98365.59;8255004;28;20282;-79
2021/10/16 18:54:12;;;;;;;18.40;15.13;;;;;;;12.63;51.89;98364.28;8254823;28;20238;-79
2021/10/16 18:58:17;;;;;;;18.03;13.37;;;;;;;12.56;52.41;98363.72;8254829;28;20210;-80
2021/10/16 19:02:22;;;;;;;21.30;15.07;;;;;;;12.56;52.56;98357.69;8254762;28;20238;-79
2021/10/16 19:06:25;;;;;;;15.57;10.93;;;;;;;12.45;52.09;98360.75;8254811;28;20213;-79